Greeley, CO

9:37 AM MDT on September 22, 2014 (GMT -0600)
Ross Hall - UNC | Change Station
CLOSE
Current Station
Personal Weather Station
Location: Greeley, CO
Elevation: 4790 ft
Nearby Weather Stations

Elev 4790 ft 40.40 °N, 104.70 °W | Updated 18 seconds ago

Mostly Cloudy
Mostly Cloudy
59.5 °F
Feels Like 59.5 °F
N
0.0
Wind Variable Wind from West
Gusts 0.0 mph

Today
High -- | Low -- °F
--% Chance of Precip.
Yesterday
High -- | Low -- °F
Precip. -- in
6:46 AM 6:55 PM
Waning Crescent, 2% visible
Pressure 30.19 in
Visibility 10.0 miles
Clouds Scattered Clouds 11000 ft
Dew Point 50 °F
Humidity 71%
Rainfall 0.00 in
Snow Depth 0 in , 0 in , 2 in
UV 2 out of 12
Pollen 6.70 out of 12
Ozone Good
PM2.5 Good
Flu Activity Not available.
METAR KGXY 221515Z AUTO 10004KT 10SM SCT110 16/07 A3019 RMK AO1

More Conditions Fewer Conditions

Pressure 30.19 in
Visibility 10.0 miles
Clouds Scattered Clouds 11000 ft
Dew Point 50 °F
Humidity 71%
Rainfall 0.00 in
Snow Depth 0 in , 0 in , 2 in
UV 2 out of 12
Pollen 6.70 out of 12
Ozone Good
PM2.5 Good
Flu Activity Not available.
METAR KGXY 221515Z AUTO 10004KT 10SM SCT110 16/07 A3019 RMK AO1

More Conditions Fewer Conditions

Nowcast | as of 8:36 am MDT on September 22, 2014

Rain showers will become more numerous across the Front Range foothills and adjacent plains through mid morning hours...especially over the Denver area and extending through Douglas County. Rainfall rates will be around a tenth of an inch per hour.

×

10-Day Weather Forecast

Almanac

Astronomy

Sep. 22, 2014 Rise Set
Actual Time 6:46 AM MDT 6:55 PM MDT
Civil Twilight 6:19 AM MDT 7:22 PM MDT
Nautical Twilight 5:47 AM MDT 7:54 PM MDT
Astronomical Twilight 5:14 AM MDT 8:27 PM MDT
Moon 5:17 AM MDT 6:04 PM MDT
Length of Visible Light 13h 03m
Length of Day
12h 09m
Tomorrow will be 2m 39s shorter.
Waning Crescent, 2% of the Moon is Illuminated
Today
Waning Crescent
Sep 24
New
Oct 1
First Quarter
Oct 8
Full
Oct 15
Last Quarter

Today's Extremes

State Highs State Lows

Community

WunderPhotos

Upload Photos

1,755,464 photos uploaded!

Nearby

Air Quality

  Air Quality AQ Index Pollutant
Yesterday Good
OZONE
Yesterday Good
PM2.5
Current Good
PM2.5
Current Good
OZONE
Monday Good
PM2.5
Monday Good
OZONE

Snow Depth

Station Depth Elevation
Willow Park 0 in 10700 ft
Zirkel 0 in 9340 ft
Lone Cone 2 in 9600 ft
Brumley 0 in 10600 ft
Fremont Pass 0 in 11400 ft

Earthquake Activity

City Distance Mag. Time & Date
No recent earthquake activity has been reported nearby.
Minimum magnitude displayed is 2.5.

Coastal Water Temperatures

Place Temperature
No Stations Reporting

Nearby Weather Stations